Thunder radar more information blitzortung!


Radar de pluja more information rain snow radar


Visita la nostra xarxa de llocs de meteo:

Template documentation
and downloads

And another site



No particular awareness of the weather is required.    There are no Weather-warnings

Pagina Historial Weather Underground text

Diari Resum Marc 29, 2016 Unitats:  Mètric    Imperial   Tant
« Previous Dia
SegĂźent Dia »
Diari Setmana Mensual Anual Personalitzada
  Maxima: Minima: Media:
Temperatura: 22.5 °C 9.5 °C 17 °C
Punt de rosada: 10.1 °C 3.6 °C 6.6 °C
Humitat: 68 % 39 % 51 %
Wind Speed: 18.5 km/h 0.0 km/h 6.6 km/h
RĂ fegues de vent: 18.5 km/h - -
Vent:- - SW
Pression baro: 1018.8 hPa 1014.8 hPa -
Precipitacions: 0.0 mm    
Historical Graphs
 
 
Dades de taula per Marc 29, 2016
Temps Temperatura Punt de rosada Pression baro Vent Wind Speed RĂ fegues de vent Humitat Rainfall Rate (Hourly)
02:15 9.7 °C 3.9 °C 1016.8 hPa North 1.6 km/h 3.2 km/h 67 % 0.0 mm
02:25 9.7 °C 3.9 °C 1016.8 hPa NNE 1.6 km/h 3.2 km/h 67 % 0.0 mm
02:35 9.6 °C 3.8 °C 1016.8 hPa NNE 1.6 km/h 1.6 km/h 67 % 0.0 mm
02:45 9.8 °C 3.9 °C 1017.8 hPa NNE 1.6 km/h 3.2 km/h 67 % 0.0 mm
02:55 9.7 °C 3.9 °C 1016.8 hPa Calm   4.8 km/h 67 % 0.0 mm
03:05 9.5 °C 3.7 °C 1016.8 hPa WNW 1.6 km/h 3.2 km/h 67 % 0.0 mm
03:15 9.5 °C 3.9 °C 1017.8 hPa Calm   1.6 km/h 68 % 0.0 mm
03:25 9.9 °C 4.3 °C 1017.8 hPa ENE 1.6 km/h 3.2 km/h 68 % 0.0 mm
03:35 10.0 °C 4.3 °C 1017.8 hPa Calm   3.2 km/h 68 % 0.0 mm
03:45 10.1 °C 4.4 °C 1017.8 hPa Calm   1.6 km/h 68 % 0.0 mm
03:55 10.3 °C 4.4 °C 1017.8 hPa SSW 1.6 km/h 1.6 km/h 67 % 0.0 mm
04:05 10.6 °C 4.9 °C 1017.8 hPa ENE 1.6 km/h 3.2 km/h 68 % 0.0 mm
04:15 10.8 °C 4.9 °C 1017.8 hPa NNE 1.6 km/h 3.2 km/h 67 % 0.0 mm
04:25 11.1 °C 5.0 °C 1017.8 hPa NNE 1.6 km/h 4.8 km/h 66 % 0.0 mm
04:35 11.3 °C 5.2 °C 1017.8 hPa Calm   3.2 km/h 66 % 0.0 mm
04:45 11.8 °C 5.7 °C 1017.8 hPa ENE 1.6 km/h 3.2 km/h 66 % 0.0 mm
04:55 12.2 °C 5.8 °C 1017.8 hPa ENE 3.2 km/h 3.2 km/h 65 % 0.0 mm
05:05 13.5 °C 7.1 °C 1017.8 hPa ENE 1.6 km/h 3.2 km/h 65 % 0.0 mm
05:15 14.3 °C 7.6 °C 1017.8 hPa East 1.6 km/h 3.2 km/h 64 % 0.0 mm
05:25 15.1 °C 8.1 °C 1017.8 hPa ESE 1.6 km/h 4.8 km/h 63 % 0.0 mm
05:35 15.8 °C 8.8 °C 1017.8 hPa SE 1.6 km/h 3.2 km/h 63 % 0.0 mm
10:41 15.8 °C 8.8 °C 1017.8 hPa South 3.9 km/h 3.9 km/h 63 % 0.0 mm
10:46 16.5 °C 9.2 °C 1017.8 hPa ESE 7.4 km/h 7.4 km/h 62 % 0.0 mm
10:47 16.5 °C 9.2 °C 1017.8 hPa East 7.4 km/h 7.4 km/h 62 % 0.0 mm
10:52 16.5 °C 9.2 °C 1017.8 hPa NE 5.6 km/h 5.6 km/h 62 % 0.0 mm
10:57 16.6 °C 9.1 °C 1017.8 hPa ESE 7.4 km/h 7.4 km/h 61 % 0.0 mm
11:02 16.5 °C 8.9 °C 1017.8 hPa ENE 7.4 km/h 7.4 km/h 61 % 0.0 mm
11:07 17.0 °C 9.2 °C 1017.8 hPa East 5.6 km/h 5.6 km/h 60 % 0.0 mm
11:12 17.1 °C 9.0 °C 1017.8 hPa SSE 7.4 km/h 7.4 km/h 59 % 0.0 mm
11:17 18.0 °C 9.6 °C 1017.8 hPa SW 7.4 km/h 7.4 km/h 58 % 0.0 mm
11:22 18.5 °C 10.1 °C 1017.8 hPa WSW 9.3 km/h 9.3 km/h 58 % 0.0 mm
11:27 18.2 °C 9.6 °C 1017.8 hPa SW 3.9 km/h 3.9 km/h 57 % 0.0 mm
11:32 18.4 °C 9.4 °C 1017.8 hPa WSW 6.9 km/h 6.9 km/h 56 % 0.0 mm
11:37 18.6 °C 9.4 °C 1017.8 hPa NW 9.3 km/h 9.3 km/h 55 % 0.0 mm
11:47 19.0 °C 9.2 °C 1017.8 hPa WSW 5.6 km/h 5.6 km/h 53 % 0.0 mm
11:52 19.4 °C 9.6 °C 1017.8 hPa West 5.6 km/h 5.6 km/h 53 % 0.0 mm
11:57 19.9 °C 9.7 °C 1017.8 hPa WNW 7.4 km/h 7.4 km/h 52 % 0.0 mm
12:02 19.9 °C 9.7 °C 1017.8 hPa WSW 7.4 km/h 7.4 km/h 52 % 0.0 mm
12:07 19.9 °C 9.4 °C 1016.8 hPa West 13.0 km/h 13.0 km/h 51 % 0.0 mm
12:12 19.9 °C 9.2 °C 1016.8 hPa WSW 12.6 km/h 12.6 km/h 50 % 0.0 mm
12:17 20.1 °C 9.3 °C 1016.8 hPa ENE 7.4 km/h 7.4 km/h 50 % 0.0 mm
12:22 20.2 °C 9.4 °C 1016.8 hPa WNW 11.1 km/h 11.1 km/h 50 % 0.0 mm
12:27 20.4 °C 9.6 °C 1016.8 hPa West 7.4 km/h 7.4 km/h 50 % 0.0 mm
12:32 20.4 °C 9.6 °C 1016.8 hPa West 5.6 km/h 5.6 km/h 50 % 0.0 mm
12:37 20.4 °C 9.6 °C 1016.8 hPa South 7.4 km/h 7.4 km/h 50 % 0.0 mm
12:42 20.4 °C 9.6 °C 1016.8 hPa WNW 6.1 km/h 6.1 km/h 50 % 0.0 mm
12:47 20.4 °C 9.6 °C 1016.8 hPa NNE 7.4 km/h 7.4 km/h 50 % 0.0 mm
12:52 20.4 °C 9.6 °C 1016.8 hPa WSW 14.8 km/h 14.8 km/h 50 % 0.0 mm
12:57 20.4 °C 9.6 °C 1016.8 hPa West 5.6 km/h 5.6 km/h 50 % 0.0 mm
13:02 20.4 °C 9.6 °C 1016.8 hPa WSW 13.0 km/h 13.0 km/h 50 % 0.0 mm
13:07 20.4 °C 9.6 °C 1015.8 hPa SW 7.4 km/h 7.4 km/h 50 % 0.0 mm
13:12 21.2 °C 9.7 °C 1015.8 hPa SW 9.3 km/h 9.5 km/h 48 % 0.0 mm
13:17 20.7 °C 9.0 °C 1015.8 hPa WSW 9.7 km/h 9.7 km/h 47 % 0.0 mm
13:22 20.7 °C 9.0 °C 1015.8 hPa West 11.1 km/h 11.1 km/h 47 % 0.0 mm
13:27 20.7 °C 9.0 °C 1015.8 hPa West 13.0 km/h 13.0 km/h 47 % 0.0 mm
13:32 20.7 °C 9.0 °C 1015.8 hPa West 9.3 km/h 9.3 km/h 47 % 0.0 mm
13:37 20.7 °C 9.0 °C 1015.8 hPa West 9.3 km/h 9.3 km/h 47 % 0.0 mm
13:42 20.6 °C 8.9 °C 1015.8 hPa WSW 7.4 km/h 7.4 km/h 47 % 0.0 mm
13:47 20.6 °C 8.9 °C 1015.8 hPa WSW 13.0 km/h 13.0 km/h 47 % 0.0 mm
13:52 20.6 °C 8.9 °C 1015.8 hPa SW 6.9 km/h 6.9 km/h 47 % 0.0 mm
13:57 21.0 °C 8.6 °C 1015.8 hPa West 9.3 km/h 9.3 km/h 45 % 0.0 mm
14:02 20.6 °C 8.6 °C 1015.8 hPa SW 9.3 km/h 9.3 km/h 46 % 0.0 mm
14:07 20.5 °C 8.5 °C 1015.8 hPa SW 3.7 km/h 4.7 km/h 46 % 0.0 mm
14:12 20.6 °C 8.6 °C 1015.8 hPa SW 9.3 km/h 9.3 km/h 46 % 0.0 mm
14:17 20.7 °C 8.7 °C 1015.8 hPa SW 7.6 km/h 7.6 km/h 46 % 0.0 mm
14:22 21.0 °C 8.6 °C 1015.8 hPa West 9.3 km/h 9.3 km/h 45 % 0.0 mm
14:27 21.0 °C 8.6 °C 1015.8 hPa SSW 7.9 km/h 7.9 km/h 45 % 0.0 mm
14:32 21.0 °C 8.6 °C 1015.8 hPa WSW 4.7 km/h 4.7 km/h 45 % 0.0 mm
14:37 21.1 °C 8.7 °C 1015.8 hPa SSW 9.5 km/h 9.5 km/h 45 % 0.0 mm
14:42 21.2 °C 8.8 °C 1015.8 hPa SW 7.4 km/h 7.4 km/h 45 % 0.0 mm
14:47 21.2 °C 8.8 °C 1015.8 hPa WNW 9.3 km/h 9.3 km/h 45 % 0.0 mm
14:57 21.2 °C 8.8 °C 1015.8 hPa West 11.1 km/h 11.1 km/h 45 % 0.0 mm
15:02 21.2 °C 8.8 °C 1015.8 hPa West 5.0 km/h 5.0 km/h 45 % 0.0 mm
15:07 21.2 °C 8.8 °C 1016.8 hPa West 9.5 km/h 9.5 km/h 45 % 0.0 mm
15:12 21.2 °C 8.8 °C 1016.8 hPa SSW 7.4 km/h 7.4 km/h 45 % 0.0 mm
15:17 21.2 °C 8.8 °C 1016.8 hPa SSW 18.5 km/h 18.5 km/h 45 % 0.0 mm
15:22 22.3 °C 8.4 °C 1015.8 hPa WSW 16.9 km/h 16.9 km/h 41 % 0.0 mm
15:27 22.5 °C 8.2 °C 1015.8 hPa WSW 16.7 km/h 16.7 km/h 40 % 0.0 mm
15:32 22.5 °C 8.2 °C 1015.8 hPa WSW 13.0 km/h 13.0 km/h 40 % 0.0 mm
15:37 22.2 °C 8.3 °C 1014.8 hPa WSW 14.8 km/h 14.8 km/h 41 % 0.0 mm
15:42 22.4 °C 8.5 °C 1014.8 hPa SW 9.3 km/h 9.3 km/h 41 % 0.0 mm
15:47 22.1 °C 7.9 °C 1014.8 hPa WNW 16.7 km/h 16.7 km/h 40 % 0.0 mm
15:52 22.2 °C 7.9 °C 1014.8 hPa West 7.4 km/h 7.4 km/h 40 % 0.0 mm
15:57 22.1 °C 7.5 °C 1014.8 hPa SW 16.7 km/h 16.7 km/h 39 % 0.0 mm
16:02 22.1 °C 7.5 °C 1014.8 hPa SSW 16.7 km/h 16.7 km/h 39 % 0.0 mm
16:12 22.2 °C 7.9 °C 1014.8 hPa WSW 5.6 km/h 5.6 km/h 40 % 0.0 mm
16:17 22.1 °C 7.5 °C 1014.8 hPa WSW 14.8 km/h 14.8 km/h 39 % 0.0 mm
16:18 22.1 °C 7.5 °C 1014.8 hPa NNW 13.0 km/h 13.0 km/h 39 % 0.0 mm
16:23 22.1 °C 7.5 °C 1014.8 hPa SW 12.6 km/h 12.6 km/h 39 % 0.0 mm
16:28 21.9 °C 7.7 °C 1014.8 hPa SW 8.7 km/h 8.7 km/h 40 % 0.0 mm
16:33 21.7 °C 7.5 °C 1014.8 hPa West 9.3 km/h 9.3 km/h 40 % 0.0 mm
16:38 21.6 °C 7.4 °C 1014.8 hPa WSW 7.9 km/h 7.9 km/h 40 % 0.0 mm
16:43 21.4 °C 7.2 °C 1014.8 hPa SW 18.5 km/h 18.5 km/h 40 % 0.0 mm
16:48 21.3 °C 7.2 °C 1014.8 hPa West 11.1 km/h 11.1 km/h 40 % 0.0 mm
16:53 21.2 °C 7.1 °C 1014.8 hPa SSW 11.1 km/h 11.1 km/h 40 % 0.0 mm
16:58 21.2 °C 7.4 °C 1014.8 hPa SW 7.4 km/h 9.5 km/h 41 % 0.0 mm
17:03 21.1 °C 7.3 °C 1014.8 hPa WNW 8.7 km/h 8.7 km/h 41 % 0.0 mm
17:08 21.0 °C 7.2 °C 1014.8 hPa SW 5.6 km/h 5.6 km/h 41 % 0.0 mm
17:13 20.9 °C 7.2 °C 1014.8 hPa WSW 7.4 km/h 7.4 km/h 41 % 0.0 mm
17:18 20.8 °C 7.1 °C 1014.8 hPa WSW 9.3 km/h 9.3 km/h 41 % 0.0 mm
17:23 20.8 °C 7.4 °C 1015.8 hPa SW 7.9 km/h 7.9 km/h 42 % 0.0 mm
17:28 20.8 °C 7.4 °C 1015.8 hPa WSW 10.0 km/h 10.0 km/h 42 % 0.0 mm
17:33 20.7 °C 7.3 °C 1015.8 hPa West 13.0 km/h 13.0 km/h 42 % 0.0 mm
17:38 20.7 °C 7.3 °C 1014.8 hPa South 5.0 km/h 5.0 km/h 42 % 0.0 mm
17:43 20.7 °C 7.3 °C 1014.8 hPa SW 7.6 km/h 7.6 km/h 42 % 0.0 mm
17:48 20.6 °C 7.2 °C 1014.8 hPa SW 9.3 km/h 9.3 km/h 42 % 0.0 mm
17:58 20.6 °C 7.2 °C 1014.8 hPa SSW 11.4 km/h 11.4 km/h 42 % 0.0 mm
18:03 20.4 °C 7.4 °C 1014.8 hPa West 9.3 km/h 9.3 km/h 43 % 0.0 mm
18:08 20.3 °C 7.3 °C 1015.8 hPa WSW 13.0 km/h 13.0 km/h 43 % 0.0 mm
18:13 20.2 °C 7.2 °C 1015.8 hPa WSW 9.3 km/h 9.3 km/h 43 % 0.0 mm
18:18 20.1 °C 7.1 °C 1015.8 hPa SW 9.3 km/h 9.3 km/h 43 % 0.0 mm
18:23 20.0 °C 7.1 °C 1015.8 hPa SSW 7.4 km/h 7.4 km/h 43 % 0.0 mm
18:28 20.0 °C 7.1 °C 1015.8 hPa SW 12.2 km/h 12.2 km/h 43 % 0.0 mm
18:33 20.0 °C 7.1 °C 1015.8 hPa SW 13.7 km/h 13.7 km/h 43 % 0.0 mm
18:38 20.0 °C 7.1 °C 1015.8 hPa SSW 14.8 km/h 14.8 km/h 43 % 0.0 mm
18:43 19.8 °C 6.8 °C 1015.8 hPa SW 9.3 km/h 9.3 km/h 43 % 0.0 mm
18:48 19.6 °C 6.7 °C 1015.8 hPa WSW 9.3 km/h 9.3 km/h 43 % 0.0 mm
18:53 19.5 °C 6.6 °C 1014.8 hPa SW 6.9 km/h 6.9 km/h 43 % 0.0 mm
18:58 19.4 °C 6.5 °C 1014.8 hPa SW 7.4 km/h 7.4 km/h 43 % 0.0 mm
19:03 19.4 °C 6.5 °C 1014.8 hPa SSW 9.3 km/h 9.3 km/h 43 % 0.0 mm
19:05 13.2 °C 4.1 °C 1017.8 hPa WSW 1.6 km/h   54 % 0.0 mm
19:08 19.3 °C 6.4 °C 1015.8 hPa WSW 11.1 km/h 11.1 km/h 43 % 0.0 mm
19:13 19.2 °C 6.3 °C 1015.8 hPa SSW 7.4 km/h 7.4 km/h 43 % 0.0 mm
19:15 13.2 °C 4.1 °C 1018.8 hPa WSW 3.2 km/h 4.8 km/h 54 % 0.0 mm
19:18 19.1 °C 6.2 °C 1015.8 hPa WSW 7.4 km/h 7.4 km/h 43 % 0.0 mm
19:23 18.9 °C 6.4 °C 1015.8 hPa SW 7.4 km/h 7.4 km/h 44 % 0.0 mm
19:25 13.3 °C 4.2 °C 1017.8 hPa WSW 3.2 km/h 3.2 km/h 54 % 0.0 mm
19:28 18.9 °C 6.7 °C 1015.8 hPa WSW 9.5 km/h 9.5 km/h 45 % 0.0 mm
19:33 18.8 °C 6.6 °C 1015.8 hPa WSW 11.1 km/h 11.1 km/h 45 % 0.0 mm
19:35 13.3 °C 4.2 °C 1017.8 hPa WSW 3.2 km/h 4.8 km/h 54 % 0.0 mm
19:38 18.6 °C 6.4 °C 1015.8 hPa SSW 11.1 km/h 11.1 km/h 45 % 0.0 mm
19:43 18.4 °C 6.2 °C 1015.8 hPa SW 13.0 km/h 13.0 km/h 45 % 0.0 mm
19:45 12.8 °C 4.2 °C 1017.8 hPa SW 1.6 km/h 3.2 km/h 56 % 0.0 mm
19:48 18.2 °C 6.1 °C 1015.8 hPa SSW 9.5 km/h 9.5 km/h 45 % 0.0 mm
19:55 12.8 °C 4.2 °C 1017.8 hPa East 1.6 km/h 4.8 km/h 56 % 0.0 mm
19:58 17.7 °C 5.9 °C 1015.8 hPa WSW 13.0 km/h 13.0 km/h 46 % 0.0 mm
20:03 17.6 °C 5.8 °C 1015.8 hPa SSW 13.0 km/h 13.0 km/h 46 % 0.0 mm
20:05 12.8 °C 4.2 °C 1017.8 hPa ENE 1.6 km/h 3.2 km/h 56 % 0.0 mm
20:08 17.3 °C 5.6 °C 1015.8 hPa SW 11.1 km/h 11.1 km/h 46 % 0.0 mm
20:13 17.1 °C 5.4 °C 1015.8 hPa SSW 13.0 km/h 13.0 km/h 46 % 0.0 mm
20:15 12.4 °C 4.1 °C 1017.8 hPa Calm   3.2 km/h 57 % 0.0 mm
20:18 17.0 °C 5.6 °C 1015.8 hPa SW 9.3 km/h 9.3 km/h 47 % 0.0 mm
20:23 16.8 °C 5.7 °C 1015.8 hPa SW 10.3 km/h 10.3 km/h 48 % 0.0 mm
20:25 12.3 °C 4.0 °C 1017.8 hPa Calm     57 % 0.0 mm
20:28 16.6 °C 5.6 °C 1015.8 hPa SSW 9.3 km/h 9.3 km/h 48 % 0.0 mm
20:33 16.6 °C 5.6 °C 1015.8 hPa SSW 13.0 km/h 13.0 km/h 48 % 0.0 mm
20:35 12.3 °C 4.0 °C 1017.8 hPa Calm   3.2 km/h 57 % 0.0 mm
20:38 16.5 °C 5.7 °C 1015.8 hPa WSW 9.3 km/h 9.3 km/h 49 % 0.0 mm
20:43 16.4 °C 5.7 °C 1015.8 hPa WSW 13.0 km/h 13.0 km/h 49 % 0.0 mm
20:45 12.3 °C 4.0 °C 1016.8 hPa Calm     57 % 0.0 mm
20:48 16.3 °C 5.6 °C 1015.8 hPa WSW 9.3 km/h 9.3 km/h 49 % 0.0 mm
20:53 16.3 °C 5.6 °C 1015.8 hPa SW 15.6 km/h 15.6 km/h 49 % 0.0 mm
20:55 12.3 °C 4.0 °C 1017.8 hPa Calm     57 % 0.0 mm
20:58 16.2 °C 5.4 °C 1015.8 hPa WSW 9.3 km/h 9.3 km/h 49 % 0.0 mm
21:03 16.1 °C 5.4 °C 1015.8 hPa SW 9.3 km/h 9.3 km/h 49 % 0.0 mm
21:05 12.3 °C 4.0 °C 1017.8 hPa Calm   3.2 km/h 57 % 0.0 mm
21:13 16.1 °C 5.4 °C 1016.8 hPa SW 5.6 km/h 5.6 km/h 49 % 0.0 mm
21:15 12.3 °C 4.0 °C 1016.8 hPa Calm   3.2 km/h 57 % 0.0 mm
21:18 16.1 °C 5.4 °C 1016.8 hPa WSW 7.4 km/h 7.4 km/h 49 % 0.0 mm
21:23 16.1 °C 5.4 °C 1015.8 hPa SW 11.1 km/h 11.1 km/h 49 % 0.0 mm
21:28 16.1 °C 5.4 °C 1015.8 hPa WSW 9.3 km/h 9.3 km/h 49 % 0.0 mm
21:33 16.1 °C 5.4 °C 1015.8 hPa SSW 9.3 km/h 9.3 km/h 49 % 0.0 mm
21:35 11.6 °C 4.1 °C 1016.8 hPa SW 3.2 km/h 3.2 km/h 60 % 0.0 mm
21:38 16.1 °C 5.4 °C 1015.8 hPa SSW 9.3 km/h 9.3 km/h 49 % 0.0 mm
21:43 16.1 °C 5.4 °C 1015.8 hPa SW 7.4 km/h 7.4 km/h 49 % 0.0 mm
21:45 11.4 °C 4.2 °C 1016.8 hPa Calm   1.6 km/h 61 % 0.0 mm
21:48 16.1 °C 5.4 °C 1015.8 hPa SSW 4.2 km/h 4.2 km/h 49 % 0.0 mm
21:53 15.1 °C 5.1 °C 1016.8 hPa West 3.7 km/h 3.7 km/h 51 % 0.0 mm
21:55 11.4 °C 4.2 °C 1016.8 hPa Calm   1.6 km/h 61 % 0.0 mm
21:58 15.1 °C 5.1 °C 1016.8 hPa Calm     51 % 0.0 mm
22:03 15.1 °C 5.1 °C 1016.8 hPa ESE 2.3 km/h 2.3 km/h 51 % 0.0 mm
22:05 11.4 °C 4.2 °C 1016.8 hPa Calm     61 % 0.0 mm
22:08 14.9 °C 4.8 °C 1016.8 hPa WSW 3.5 km/h 3.5 km/h 51 % 0.0 mm
22:13 14.9 °C 4.8 °C 1016.8 hPa Calm     51 % 0.0 mm
22:15 11.6 °C 4.6 °C 1016.8 hPa Calm   1.6 km/h 62 % 0.0 mm
22:18 14.9 °C 4.8 °C 1016.8 hPa NW 4.2 km/h 4.2 km/h 51 % 0.0 mm
22:23 14.8 °C 4.8 °C 1016.8 hPa NW 3.7 km/h 3.7 km/h 51 % 0.0 mm
22:25 11.6 °C 4.6 °C 1016.8 hPa Calm   1.6 km/h 62 % 0.0 mm
22:28 14.7 °C 4.7 °C 1016.8 hPa Calm     51 % 0.0 mm
22:33 14.6 °C 4.6 °C 1016.8 hPa Calm     51 % 0.0 mm
22:35 11.1 °C 3.8 °C 1016.8 hPa Calm   1.6 km/h 61 % 0.0 mm
22:38 14.6 °C 4.6 °C 1017.8 hPa WNW 1.9 km/h 1.9 km/h 51 % 0.0 mm
22:43 14.5 °C 4.5 °C 1017.8 hPa WNW 4.2 km/h 4.2 km/h 51 % 0.0 mm
22:45 11.1 °C 3.8 °C 1016.8 hPa Calm   3.2 km/h 61 % 0.0 mm
22:48 14.6 °C 4.6 °C 1017.8 hPa NW 3.7 km/h 3.7 km/h 51 % 0.0 mm
22:53 14.6 °C 4.8 °C 1017.8 hPa WNW 5.6 km/h 5.6 km/h 52 % 0.0 mm
22:58 14.6 °C 4.8 °C 1017.8 hPa WNW 2.6 km/h   52 % 0.0 mm
23:03 14.4 °C 4.7 °C 1017.8 hPa North 1.9 km/h   52 % 0.0 mm
23:05 11.1 °C 3.8 °C 1016.8 hPa NNW 1.6 km/h 1.6 km/h 61 % 0.0 mm
23:08 14.2 °C 4.5 °C 1017.8 hPa West 1.9 km/h   52 % 0.0 mm
23:13 14.1 °C 4.4 °C 1017.8 hPa West 2.6 km/h   52 % 0.0 mm
23:15 10.5 °C 4.2 °C 1016.8 hPa Calm   1.6 km/h 65 % 0.0 mm
23:18 13.9 °C 4.2 °C 1017.8 hPa WSW 2.6 km/h 2.6 km/h 52 % 0.0 mm
23:23 13.7 °C 4.0 °C 1017.8 hPa WSW 2.6 km/h 2.6 km/h 52 % 0.0 mm
23:25 10.4 °C 4.1 °C 1017.8 hPa North 3.2 km/h 3.2 km/h 65 % 0.0 mm
23:28 13.5 °C 4.1 °C 1017.8 hPa WSW 1.9 km/h   53 % 0.0 mm
23:33 13.4 °C 4.0 °C 1017.8 hPa Calm     53 % 0.0 mm
23:35 10.1 °C 3.6 °C 1017.8 hPa Calm   1.6 km/h 64 % 0.0 mm
23:38 13.2 °C 3.8 °C 1017.8 hPa SW 3.7 km/h 3.7 km/h 53 % 0.0 mm
23:43 13.1 °C 3.7 °C 1017.8 hPa WSW 3.7 km/h 3.7 km/h 53 % 0.0 mm
23:45 10.3 °C 4.0 °C 1017.8 hPa Calm   1.6 km/h 65 % 0.0 mm
23:48 13.0 °C 3.6 °C 1017.8 hPa WNW 1.9 km/h 1.9 km/h 53 % 0.0 mm
23:53 13.1 °C 3.7 °C 1017.8 hPa West 3.7 km/h 3.7 km/h 53 % 0.0 mm
23:55 10.5 °C 3.9 °C 1016.8 hPa West 1.6 km/h 3.2 km/h 64 % 0.0 mm
23:58 13.2 °C 4.1 °C 1017.8 hPa West 2.3 km/h 2.3 km/h 54 % 0.0 mm
Meteo Sesrovires
Elogis d' Weather Underground - 3.5 mb

Guio original per  Jim McMurry - jmcmurry@mwt.net Adaptat per a la plantilla per  Wim van der Kuil - Leuven-Template.eu

Trobareu la nostra informacio del temps tambe a:

Weather Underground

AWEKAS